createdAt,value
2019-01-12T00:00:19.357Z,998.27
2019-01-12T00:01:19.363Z,998.19
2019-01-12T00:02:19.356Z,998.26
2019-01-12T00:03:19.322Z,998.22
2019-01-12T00:04:19.312Z,998.21
2019-01-12T00:05:19.300Z,998.15
2019-01-12T00:06:19.300Z,998.18
2019-01-12T00:07:19.278Z,998.15
2019-01-12T00:08:19.270Z,998.14
2019-01-12T00:09:19.256Z,998.19
2019-01-12T00:10:19.255Z,998.16
2019-01-12T00:11:19.233Z,998.18
2019-01-12T00:12:19.223Z,998.16
2019-01-12T00:13:19.214Z,998.21
2019-01-12T00:14:19.207Z,998.21
2019-01-12T00:15:19.195Z,998.24
2019-01-12T00:16:19.182Z,998.17
2019-01-12T00:17:19.170Z,998.16
2019-01-12T00:18:19.158Z,998.17
2019-01-12T00:19:19.145Z,998.17
2019-01-12T00:20:19.138Z,998.13
2019-01-12T00:21:19.126Z,998.12
2019-01-12T00:22:19.116Z,998.12
2019-01-12T00:23:19.105Z,998.19
2019-01-12T00:24:19.093Z,998.16
2019-01-12T00:25:19.081Z,998.14
2019-01-12T00:26:19.071Z,998.14
2019-01-12T00:27:19.062Z,998.13
2019-01-12T00:28:19.056Z,998.18
2019-01-12T00:29:19.038Z,998.14
2019-01-12T00:30:19.027Z,998.16
2019-01-12T00:31:19.038Z,998.17
2019-01-12T00:32:19.016Z,998.19
2019-01-12T00:33:18.994Z,998.16
2019-01-12T00:34:18.986Z,998.19
2019-01-12T00:35:18.975Z,998.21
2019-01-12T00:36:18.974Z,998.26
2019-01-12T00:37:18.956Z,998.16
2019-01-12T00:38:18.946Z,998.2
2019-01-12T00:39:18.930Z,998.16
2019-01-12T00:40:18.919Z,998.21
2019-01-12T00:41:18.929Z,998.2
2019-01-12T00:42:18.900Z,998.19
2019-01-12T00:43:18.887Z,998.21
2019-01-12T00:44:18.876Z,998.23
2019-01-12T00:45:18.874Z,998.19
2019-01-12T00:46:18.855Z,998.24
2019-01-12T00:47:18.847Z,998.23
2019-01-12T00:48:18.833Z,998.25
2019-01-12T00:49:18.827Z,998.21
2019-01-12T00:50:18.815Z,998.26
2019-01-12T00:51:18.807Z,998.24
2019-01-12T00:52:18.794Z,998.29
2019-01-12T00:53:18.788Z,998.26
2019-01-12T00:54:18.780Z,998.23
2019-01-12T00:55:18.760Z,998.27
2019-01-12T00:56:18.748Z,998.23
2019-01-12T00:57:18.736Z,998.24
2019-01-12T00:58:18.738Z,998.25
2019-01-12T00:59:18.713Z,998.27
2019-01-12T01:00:18.703Z,998.2
2019-01-12T01:01:18.692Z,998.2
2019-01-12T01:02:18.681Z,998.2
2019-01-12T01:03:18.680Z,998.2
2019-01-12T01:04:18.659Z,998.25
2019-01-12T01:05:18.647Z,998.23
2019-01-12T01:06:18.648Z,998.26
2019-01-12T01:07:18.634Z,998.32
2019-01-12T01:08:18.623Z,998.27
2019-01-12T01:09:18.609Z,998.33
2019-01-12T01:10:18.598Z,998.34
2019-01-12T01:11:18.587Z,998.33
2019-01-12T01:12:18.571Z,998.34
2019-01-12T01:13:18.562Z,998.31
2019-01-12T01:14:18.551Z,998.37
2019-01-12T01:15:18.538Z,998.32
2019-01-12T01:16:18.532Z,998.37
2019-01-12T01:17:18.529Z,998.36
2019-01-12T01:18:18.508Z,998.35
2019-01-12T01:19:18.495Z,998.32
2019-01-12T01:20:18.486Z,998.3
2019-01-12T01:21:18.473Z,998.35
2019-01-12T01:22:18.467Z,998.38
2019-01-12T01:23:18.452Z,998.39
2019-01-12T01:24:18.441Z,998.36
2019-01-12T01:25:18.430Z,998.37
2019-01-12T01:26:18.417Z,998.36
2019-01-12T01:27:18.408Z,998.37
2019-01-12T01:28:18.397Z,998.39
2019-01-12T01:29:18.437Z,998.38
2019-01-12T01:30:18.378Z,998.36
2019-01-12T01:31:18.366Z,998.38
2019-01-12T01:32:18.352Z,998.49
2019-01-12T01:33:18.348Z,998.51
2019-01-12T01:34:18.332Z,998.46
2019-01-12T01:35:18.321Z,998.5
2019-01-12T01:36:18.315Z,998.49
2019-01-12T01:37:18.302Z,998.49
2019-01-12T01:38:18.293Z,998.57
2019-01-12T01:39:18.285Z,998.58
2019-01-12T01:40:18.274Z,998.58
2019-01-12T01:41:18.254Z,998.58
2019-01-12T01:42:18.262Z,998.6
2019-01-12T01:43:18.240Z,998.6
2019-01-12T01:44:18.227Z,998.57
2019-01-12T01:45:18.219Z,998.57
2019-01-12T01:46:18.203Z,998.55
2019-01-12T01:47:18.195Z,998.57
2019-01-12T01:48:18.185Z,998.56
2019-01-12T01:49:18.164Z,998.47
2019-01-12T01:50:18.165Z,998.58
2019-01-12T01:51:18.144Z,998.57
2019-01-12T01:52:18.142Z,998.54
2019-01-12T01:53:18.122Z,998.53
2019-01-12T01:54:18.115Z,998.54
2019-01-12T01:55:18.100Z,998.5
2019-01-12T01:56:18.090Z,998.48
2019-01-12T01:57:18.085Z,998.51
2019-01-12T01:58:18.066Z,998.49
2019-01-12T01:59:18.055Z,998.5
2019-01-12T02:00:18.049Z,998.47
2019-01-12T02:01:18.033Z,998.56
2019-01-12T02:02:18.019Z,998.53
2019-01-12T02:03:18.007Z,998.52
2019-01-12T02:04:17.995Z,998.53
2019-01-12T02:05:17.986Z,998.54
2019-01-12T02:06:17.979Z,998.53
2019-01-12T02:07:17.967Z,998.54
2019-01-12T02:08:17.953Z,998.54
2019-01-12T02:09:17.945Z,998.52
2019-01-12T02:10:17.944Z,998.52
2019-01-12T02:11:17.921Z,998.52
2019-01-12T02:12:17.911Z,998.5
2019-01-12T02:13:17.899Z,998.54
2019-01-12T02:14:17.888Z,998.52
2019-01-12T02:15:17.877Z,998.51
2019-01-12T02:16:17.866Z,998.47
2019-01-12T02:17:17.874Z,998.51
2019-01-12T02:18:17.852Z,998.48
2019-01-12T02:19:17.835Z,998.49
2019-01-12T02:20:17.827Z,998.46
2019-01-12T02:21:17.812Z,998.45
2019-01-12T02:22:17.805Z,998.47
2019-01-12T02:23:17.792Z,998.47
2019-01-12T02:24:17.785Z,998.39
2019-01-12T02:25:17.772Z,998.47
2019-01-12T02:26:17.766Z,998.44
2019-01-12T02:27:17.748Z,998.43
2019-01-12T02:28:17.739Z,998.52
2019-01-12T02:29:17.731Z,998.49
2019-01-12T02:30:17.762Z,998.46
2019-01-12T02:31:17.706Z,998.43
2019-01-12T02:32:17.696Z,998.46
2019-01-12T02:33:17.685Z,998.48
2019-01-12T02:34:17.675Z,998.46
2019-01-12T02:35:17.663Z,998.44
2019-01-12T02:36:17.658Z,998.45
2019-01-12T02:37:17.651Z,998.42
2019-01-12T02:38:17.636Z,998.42
2019-01-12T02:39:17.634Z,998.4
2019-01-12T02:40:17.607Z,998.42
2019-01-12T02:41:17.599Z,998.43
2019-01-12T02:42:17.590Z,998.42
2019-01-12T02:43:17.577Z,998.39
2019-01-12T02:44:17.573Z,998.4
2019-01-12T02:45:17.561Z,998.39
2019-01-12T02:46:17.552Z,998.39
2019-01-12T02:47:17.532Z,998.39
2019-01-12T02:48:17.652Z,998.35
2019-01-12T02:49:17.517Z,998.36
2019-01-12T02:50:17.502Z,998.39
2019-01-12T02:51:17.495Z,998.34
2019-01-12T02:52:17.480Z,998.34
2019-01-12T02:53:17.475Z,998.34
2019-01-12T02:54:17.463Z,998.32
2019-01-12T02:55:17.460Z,998.31
2019-01-12T02:56:17.436Z,998.29
2019-01-12T02:57:17.427Z,998.27
2019-01-12T02:58:18.422Z,998.26
2019-01-12T02:59:17.419Z,998.23
2019-01-12T03:00:17.469Z,998.22
2019-01-12T03:01:17.382Z,998.24
2019-01-12T03:02:17.374Z,998.24
2019-01-12T03:03:17.364Z,998.23
2019-01-12T03:04:17.350Z,998.24
2019-01-12T03:05:17.351Z,998.24
2019-01-12T03:06:17.357Z,998.19
2019-01-12T03:07:17.348Z,998.2
2019-01-12T03:08:17.304Z,998.16
2019-01-12T03:09:17.297Z,998.13
2019-01-12T03:10:17.284Z,998.14
2019-01-12T03:11:17.290Z,998.17
2019-01-12T03:12:17.265Z,998.16
2019-01-12T03:13:17.254Z,998.11
2019-01-12T03:14:17.243Z,998.12
2019-01-12T03:15:17.237Z,998.1
2019-01-12T03:16:17.237Z,998.11
2019-01-12T03:17:17.216Z,998.06
2019-01-12T03:18:17.202Z,998.04
2019-01-12T03:19:17.207Z,998.08
2019-01-12T03:20:17.193Z,998.03
2019-01-12T03:21:17.168Z,998.04
2019-01-12T03:22:17.159Z,998.05
2019-01-12T03:23:17.146Z,998.03
2019-01-12T03:24:17.138Z,998.06
2019-01-12T03:25:18.966Z,998.03
2019-01-12T03:26:17.116Z,998.01
2019-01-12T03:27:17.144Z,998.03
2019-01-12T03:28:17.097Z,998.01
2019-01-12T03:29:17.118Z,997.97
2019-01-12T03:30:17.095Z,997.97
2019-01-12T03:31:17.065Z,997.98
2019-01-12T03:32:17.055Z,998.06
2019-01-12T03:33:17.050Z,998
2019-01-12T03:34:17.032Z,997.99
2019-01-12T03:35:17.049Z,997.99
2019-01-12T03:36:17.014Z,997.98
2019-01-12T03:37:16.997Z,997.98
2019-01-12T03:38:17.007Z,997.99
2019-01-12T03:39:16.978Z,997.99
2019-01-12T03:40:16.965Z,997.97
2019-01-12T03:41:16.959Z,997.94
2019-01-12T03:42:16.950Z,997.95
2019-01-12T03:43:16.944Z,997.99
2019-01-12T03:44:16.939Z,997.96
2019-01-12T03:45:16.913Z,997.97
2019-01-12T03:46:16.947Z,997.97
2019-01-12T03:47:16.898Z,997.96
2019-01-12T03:48:16.880Z,997.93
2019-01-12T03:49:16.875Z,997.97
2019-01-12T03:50:16.859Z,997.93
2019-01-12T03:51:16.859Z,997.97
2019-01-12T03:52:16.836Z,997.92
2019-01-12T03:53:16.830Z,998.01
2019-01-12T03:54:16.855Z,997.9
2019-01-12T03:55:16.806Z,997.91
2019-01-12T03:56:16.798Z,997.92
2019-01-12T03:57:16.786Z,997.92
2019-01-12T03:58:16.776Z,997.93
2019-01-12T03:59:16.766Z,997.89
2019-01-12T04:00:16.761Z,997.92
2019-01-12T04:01:16.747Z,997.91
2019-01-12T04:02:16.736Z,997.9
2019-01-12T04:03:16.724Z,997.9
2019-01-12T04:04:16.714Z,997.9
2019-01-12T04:05:16.748Z,997.93
2019-01-12T04:06:16.701Z,997.93
2019-01-12T04:07:16.714Z,997.99
2019-01-12T04:08:16.673Z,997.98
2019-01-12T04:09:16.661Z,997.92
2019-01-12T04:10:16.650Z,997.93
2019-01-12T04:11:16.648Z,997.96
2019-01-12T04:12:16.629Z,997.98
2019-01-12T04:13:16.621Z,997.96
2019-01-12T04:14:16.609Z,997.93
2019-01-12T04:15:16.599Z,997.93
2019-01-12T04:16:16.588Z,997.9
2019-01-12T04:17:16.578Z,997.94
2019-01-12T04:18:16.571Z,997.93
2019-01-12T04:19:16.554Z,997.92
2019-01-12T04:20:16.548Z,997.9
2019-01-12T04:21:16.536Z,997.9
2019-01-12T04:22:16.560Z,997.89
2019-01-12T04:23:16.515Z,997.92
2019-01-12T04:24:16.507Z,997.9
2019-01-12T04:25:16.497Z,997.89
2019-01-12T04:26:16.484Z,997.87
2019-01-12T04:27:16.480Z,997.9
2019-01-12T04:28:16.464Z,997.86
2019-01-12T04:29:16.454Z,997.85
2019-01-12T04:30:16.445Z,997.88
2019-01-12T04:31:16.435Z,997.88
2019-01-12T04:32:16.423Z,997.82
2019-01-12T04:33:16.419Z,997.91
2019-01-12T04:34:16.403Z,997.91
2019-01-12T04:35:16.394Z,997.93
2019-01-12T04:36:16.380Z,997.92
2019-01-12T04:37:16.380Z,997.89
2019-01-12T04:38:16.362Z,997.92
2019-01-12T04:39:16.356Z,997.93
2019-01-12T04:40:16.339Z,997.95
2019-01-12T04:41:16.330Z,997.92
2019-01-12T04:42:16.353Z,997.93
2019-01-12T04:43:16.314Z,997.89
2019-01-12T04:44:16.320Z,997.91
2019-01-12T04:45:16.293Z,997.93
2019-01-12T04:46:16.279Z,997.87
2019-01-12T04:47:16.267Z,997.89
2019-01-12T04:48:16.256Z,997.9
2019-01-12T04:49:16.248Z,997.87
2019-01-12T04:50:16.238Z,997.85
2019-01-12T04:51:16.227Z,997.83
2019-01-12T04:52:16.217Z,997.84
2019-01-12T04:53:16.206Z,997.82
2019-01-12T04:54:16.193Z,997.84
2019-01-12T04:55:16.191Z,997.81
2019-01-12T04:56:16.186Z,997.81
2019-01-12T04:57:16.168Z,997.85
2019-01-12T04:58:16.155Z,997.79
2019-01-12T04:59:16.153Z,997.78
2019-01-12T05:00:16.136Z,997.83
2019-01-12T05:01:16.128Z,997.79
2019-01-12T05:02:16.113Z,997.79
2019-01-12T05:03:16.103Z,997.82
2019-01-12T05:04:16.095Z,997.79
2019-01-12T05:05:16.088Z,997.77
2019-01-12T05:06:16.072Z,997.81
2019-01-12T05:07:16.064Z,997.82
2019-01-12T05:08:16.059Z,997.8
2019-01-12T05:09:16.047Z,997.77
2019-01-12T05:10:16.032Z,997.81
2019-01-12T05:11:16.022Z,997.8
2019-01-12T05:12:16.014Z,997.82
2019-01-12T05:13:16.004Z,997.8
2019-01-12T05:14:15.993Z,997.81
2019-01-12T05:15:15.981Z,997.83
2019-01-12T05:16:15.973Z,997.83
2019-01-12T05:17:15.963Z,997.79
2019-01-12T05:18:15.963Z,997.83
2019-01-12T05:19:15.943Z,997.82
2019-01-12T05:20:15.933Z,997.81
2019-01-12T05:21:15.922Z,997.82
2019-01-12T05:22:15.913Z,997.83
2019-01-12T05:23:15.904Z,997.82
2019-01-12T05:24:15.908Z,997.78
2019-01-12T05:25:15.944Z,997.76
2019-01-12T05:26:15.878Z,997.81
2019-01-12T05:27:15.864Z,997.81
2019-01-12T05:28:15.871Z,997.8
2019-01-12T05:29:15.840Z,997.81
2019-01-12T05:30:16.956Z,997.85
2019-01-12T05:31:15.837Z,997.84
2019-01-12T05:32:15.810Z,997.83
2019-01-12T05:33:15.815Z,997.87
2019-01-12T05:34:15.792Z,997.89
2019-01-12T05:35:15.781Z,997.83
2019-01-12T05:36:15.779Z,997.84
2019-01-12T05:37:15.763Z,997.87
2019-01-12T05:38:15.753Z,997.85
2019-01-12T05:39:15.760Z,997.85
2019-01-12T05:40:15.730Z,997.89
2019-01-12T05:41:15.745Z,997.86
2019-01-12T05:42:15.709Z,997.86
2019-01-12T05:43:16.005Z,997.9
2019-01-12T05:44:15.690Z,997.89
2019-01-12T05:45:15.677Z,997.88
2019-01-12T05:46:15.682Z,997.86
2019-01-12T05:47:15.661Z,997.92
2019-01-12T05:48:15.657Z,997.87
2019-01-12T05:49:15.664Z,997.9
2019-01-12T05:50:15.682Z,997.87
2019-01-12T05:51:15.620Z,997.86
2019-01-12T05:52:15.606Z,997.88
2019-01-12T05:53:15.602Z,997.87
2019-01-12T05:54:15.586Z,997.87
2019-01-12T05:55:15.581Z,997.83
2019-01-12T05:56:15.584Z,997.85
2019-01-12T05:57:15.553Z,997.89
2019-01-12T05:58:15.548Z,997.89
2019-01-12T05:59:15.536Z,997.87
2019-01-12T06:00:15.525Z,997.89
2019-01-12T06:01:15.551Z,997.92
2019-01-12T06:02:15.504Z,997.91
2019-01-12T06:03:15.496Z,997.93
2019-01-12T06:04:15.483Z,997.89
2019-01-12T06:05:15.477Z,997.92
2019-01-12T06:06:15.471Z,997.87
2019-01-12T06:07:15.451Z,997.85
2019-01-12T06:08:15.444Z,997.94
2019-01-12T06:09:15.433Z,997.9
2019-01-12T06:10:15.424Z,997.89
2019-01-12T06:11:15.419Z,997.87
2019-01-12T06:12:15.418Z,997.86
2019-01-12T06:13:15.397Z,997.89
2019-01-12T06:14:15.382Z,997.91
2019-01-12T06:15:15.386Z,997.92
2019-01-12T06:16:15.367Z,997.89
2019-01-12T06:17:15.352Z,997.91
2019-01-12T06:18:15.341Z,997.91
2019-01-12T06:19:15.341Z,997.92
2019-01-12T06:20:15.331Z,997.89
2019-01-12T06:21:15.312Z,997.9
2019-01-12T06:22:15.299Z,997.84
2019-01-12T06:23:15.304Z,997.87
2019-01-12T06:24:15.283Z,997.83
2019-01-12T06:25:15.271Z,997.88
2019-01-12T06:26:15.284Z,997.84
2019-01-12T06:27:15.253Z,997.84
2019-01-12T06:28:15.242Z,997.81
2019-01-12T06:29:15.234Z,997.86
2019-01-12T06:30:15.224Z,997.86
2019-01-12T06:31:15.222Z,997.88
2019-01-12T06:32:15.198Z,997.91
2019-01-12T06:33:15.188Z,997.85
2019-01-12T06:34:15.190Z,997.87
2019-01-12T06:35:15.169Z,997.9
2019-01-12T06:36:15.170Z,997.93
2019-01-12T06:37:15.149Z,997.91
2019-01-12T06:38:15.137Z,997.9
2019-01-12T06:39:15.130Z,997.93
2019-01-12T06:40:15.117Z,997.91
2019-01-12T06:41:15.128Z,997.91
2019-01-12T06:42:15.105Z,997.9
2019-01-12T06:43:15.107Z,997.95
2019-01-12T06:44:15.078Z,997.95
2019-01-12T06:45:15.077Z,997.96
2019-01-12T06:46:15.063Z,997.92
2019-01-12T06:47:15.051Z,997.94
2019-01-12T06:48:15.050Z,997.91
2019-01-12T06:49:15.030Z,997.94
2019-01-12T06:50:15.021Z,997.91
2019-01-12T06:51:15.019Z,997.93
2019-01-12T06:52:14.998Z,997.93
2019-01-12T06:53:14.987Z,997.95
2019-01-12T06:54:14.978Z,997.93
2019-01-12T06:55:14.973Z,997.95
2019-01-12T06:56:14.981Z,997.97
2019-01-12T06:57:14.951Z,997.9
2019-01-12T06:58:14.939Z,997.95
2019-01-12T06:59:14.928Z,997.96
2019-01-12T07:00:14.923Z,997.93
2019-01-12T07:01:14.922Z,997.93
2019-01-12T07:02:14.899Z,997.95
2019-01-12T07:03:14.894Z,997.93
2019-01-12T07:04:14.879Z,997.99
2019-01-12T07:05:14.873Z,997.97
2019-01-12T07:06:14.876Z,997.99
2019-01-12T07:07:14.866Z,998.05
2019-01-12T07:08:14.839Z,997.99
2019-01-12T07:09:14.836Z,997.98
2019-01-12T07:10:14.817Z,997.96
2019-01-12T07:11:14.821Z,997.98
2019-01-12T07:12:14.799Z,997.97
2019-01-12T07:13:14.787Z,998.01
2019-01-12T07:14:14.776Z,997.98
2019-01-12T07:15:14.766Z,997.96
2019-01-12T07:16:14.758Z,998
2019-01-12T07:17:14.753Z,997.95
2019-01-12T07:18:14.752Z,997.94
2019-01-12T07:19:14.729Z,997.97
2019-01-12T07:20:14.718Z,997.94
2019-01-12T07:21:14.707Z,997.97
2019-01-12T07:22:14.703Z,998
2019-01-12T07:23:14.688Z,998.02
2019-01-12T07:24:14.677Z,998
2019-01-12T07:25:14.669Z,998.03
2019-01-12T07:26:17.579Z,998.03
2019-01-12T07:27:14.647Z,998.05
2019-01-12T07:28:14.643Z,998.04
2019-01-12T07:29:14.641Z,998.03
2019-01-12T07:30:14.620Z,998.07
2019-01-12T07:31:14.609Z,998.06
2019-01-12T07:32:14.598Z,998.08
2019-01-12T07:33:14.610Z,998.1
2019-01-12T07:34:14.589Z,998.07
2019-01-12T07:35:14.569Z,998.13
2019-01-12T07:36:14.561Z,998.1
2019-01-12T07:37:14.549Z,998.19
2019-01-12T07:38:14.539Z,998.14
2019-01-12T07:39:14.533Z,998.18
2019-01-12T07:40:14.524Z,998.2
2019-01-12T07:41:14.512Z,998.2
2019-01-12T07:42:14.501Z,998.26
2019-01-12T07:43:14.493Z,998.27
2019-01-12T07:44:14.481Z,998.3
2019-01-12T07:45:14.474Z,998.26
2019-01-12T07:46:14.462Z,998.25
2019-01-12T07:47:14.452Z,998.27
2019-01-12T07:48:14.449Z,998.29
2019-01-12T07:49:14.433Z,998.28
2019-01-12T07:50:14.422Z,998.23
2019-01-12T07:51:14.413Z,998.27
2019-01-12T07:52:14.404Z,998.3
2019-01-12T07:53:14.395Z,998.28
2019-01-12T07:54:14.386Z,998.33
2019-01-12T07:55:14.379Z,998.3
2019-01-12T07:56:14.372Z,998.29
2019-01-12T07:57:14.357Z,998.27
2019-01-12T07:58:14.350Z,998.32
2019-01-12T07:59:14.340Z,998.31
2019-01-12T08:00:14.330Z,998.34
2019-01-12T08:01:14.320Z,998.32
2019-01-12T08:02:14.309Z,998.32
2019-01-12T08:03:14.300Z,998.32
2019-01-12T08:04:14.291Z,998.34
2019-01-12T08:05:14.281Z,998.33
2019-01-12T08:06:14.279Z,998.29
2019-01-12T08:07:14.263Z,998.32
2019-01-12T08:08:14.265Z,998.31
2019-01-12T08:09:15.053Z,998.33
2019-01-12T08:10:14.236Z,998.32
2019-01-12T08:11:14.233Z,998.36
2019-01-12T08:12:14.220Z,998.3
2019-01-12T08:13:14.241Z,998.29
2019-01-12T08:14:14.200Z,998.31
2019-01-12T08:15:14.198Z,998.31
2019-01-12T08:16:14.185Z,998.36
2019-01-12T08:17:14.174Z,998.33
2019-01-12T08:18:14.158Z,998.31
2019-01-12T08:19:14.163Z,998.34
2019-01-12T08:20:14.137Z,998.33
2019-01-12T08:21:14.145Z,998.28
2019-01-12T08:22:14.141Z,998.29
2019-01-12T08:23:14.124Z,998.36
2019-01-12T08:24:14.119Z,998.29
2019-01-12T08:25:14.107Z,998.34
2019-01-12T08:26:14.094Z,998.3
2019-01-12T08:27:14.091Z,998.35
2019-01-12T08:28:14.088Z,998.36
2019-01-12T08:29:14.060Z,998.36
2019-01-12T08:30:14.046Z,998.37
2019-01-12T08:31:14.034Z,998.34
2019-01-12T08:32:14.029Z,998.38
2019-01-12T08:33:14.027Z,998.36
2019-01-12T08:34:14.039Z,998.33
2019-01-12T08:35:13.999Z,998.32
2019-01-12T08:36:13.993Z,998.3
2019-01-12T08:37:13.986Z,998.29
2019-01-12T08:38:13.971Z,998.31
2019-01-12T08:39:13.971Z,998.33
2019-01-12T08:40:13.952Z,998.38
2019-01-12T08:41:13.953Z,998.36
2019-01-12T08:42:13.937Z,998.33
2019-01-12T08:43:13.933Z,998.35
2019-01-12T08:44:13.916Z,998.35
2019-01-12T08:45:13.909Z,998.33
2019-01-12T08:46:13.899Z,998.36
2019-01-12T08:47:13.887Z,998.35
2019-01-12T08:48:13.876Z,998.38
2019-01-12T08:49:13.868Z,998.38
2019-01-12T08:50:13.858Z,998.36
2019-01-12T08:51:13.850Z,998.32
2019-01-12T08:52:13.844Z,998.35
2019-01-12T08:53:13.831Z,998.34
2019-01-12T08:54:13.823Z,998.37
2019-01-12T08:55:13.815Z,998.38
2019-01-12T08:56:13.803Z,998.39
2019-01-12T08:57:13.796Z,998.42
2019-01-12T08:58:13.787Z,998.4
2019-01-12T08:59:13.775Z,998.36
2019-01-12T09:00:13.767Z,998.32
2019-01-12T09:01:13.759Z,998.37
2019-01-12T09:02:13.759Z,998.34
2019-01-12T09:03:13.741Z,998.37
2019-01-12T09:04:13.737Z,998.34
2019-01-12T09:05:13.725Z,998.34
2019-01-12T09:06:13.713Z,998.35
2019-01-12T09:07:13.716Z,998.35
2019-01-12T09:08:13.717Z,998.36
2019-01-12T09:09:13.702Z,998.36
2019-01-12T09:10:13.676Z,998.37
2019-01-12T09:11:13.667Z,998.37
2019-01-12T09:12:13.661Z,998.31
2019-01-12T09:13:13.659Z,998.34
2019-01-12T09:14:13.644Z,998.34
2019-01-12T09:15:13.634Z,998.33
2019-01-12T09:16:13.627Z,998.35
2019-01-12T09:17:13.615Z,998.32
2019-01-12T09:18:13.609Z,998.32
2019-01-12T09:19:13.596Z,998.39
2019-01-12T09:20:13.590Z,998.32
2019-01-12T09:21:13.604Z,998.32
2019-01-12T09:22:13.568Z,998.26
2019-01-12T09:23:13.559Z,998.27
2019-01-12T09:24:13.551Z,998.32
2019-01-12T09:25:13.543Z,998.26
2019-01-12T09:26:13.533Z,998.27
2019-01-12T09:27:13.531Z,998.29
2019-01-12T09:28:13.549Z,998.25
2019-01-12T09:29:13.521Z,998.32
2019-01-12T09:30:13.499Z,998.27
2019-01-12T09:31:13.490Z,998.31
2019-01-12T09:32:13.498Z,998.33
2019-01-12T09:33:13.469Z,998.26
2019-01-12T09:34:13.466Z,998.28
2019-01-12T09:35:13.454Z,998.32
2019-01-12T09:36:13.451Z,998.29
2019-01-12T09:37:13.440Z,998.33
2019-01-12T09:38:13.428Z,998.29
2019-01-12T09:39:13.418Z,998.35
2019-01-12T09:40:13.411Z,998.3
2019-01-12T09:41:13.401Z,998.35
2019-01-12T09:42:13.393Z,998.34
2019-01-12T09:43:13.384Z,998.35
2019-01-12T09:44:13.373Z,998.37
2019-01-12T09:45:13.369Z,998.4
2019-01-12T09:46:13.357Z,998.34
2019-01-12T09:47:13.350Z,998.38
2019-01-12T09:48:13.340Z,998.37
2019-01-12T09:49:13.331Z,998.35
2019-01-12T09:50:13.320Z,998.32
2019-01-12T09:51:13.312Z,998.36
2019-01-12T09:52:13.302Z,998.37
2019-01-12T09:53:13.300Z,998.33
2019-01-12T09:54:13.294Z,998.33
2019-01-12T09:55:13.280Z,998.29
2019-01-12T09:56:13.268Z,998.33
2019-01-12T09:57:13.259Z,998.3
2019-01-12T09:58:13.247Z,998.37
2019-01-12T09:59:13.257Z,998.27
2019-01-12T10:00:13.230Z,998.3
2019-01-12T10:01:13.223Z,998.28
2019-01-12T10:02:13.215Z,998.25
2019-01-12T10:03:13.203Z,998.21
2019-01-12T10:04:13.201Z,998.23
2019-01-12T10:05:13.197Z,998.22
2019-01-12T10:06:13.188Z,998.19
2019-01-12T10:07:13.169Z,998.21
2019-01-12T10:08:13.167Z,998.21
2019-01-12T10:09:13.159Z,998.22
2019-01-12T10:10:13.143Z,998.27
2019-01-12T10:11:13.140Z,998.21
2019-01-12T10:12:13.125Z,998.25
2019-01-12T10:13:13.123Z,998.2
2019-01-12T10:14:13.109Z,998.19
2019-01-12T10:15:13.101Z,998.17
2019-01-12T10:16:13.091Z,998.16
2019-01-12T10:17:13.083Z,998.13
2019-01-12T10:18:13.074Z,998.16
2019-01-12T10:19:13.067Z,998.12
2019-01-12T10:20:13.056Z,998.07
2019-01-12T10:21:13.094Z,998.1
2019-01-12T10:22:13.065Z,998.1
2019-01-12T10:23:13.031Z,998.1
2019-01-12T10:24:13.021Z,998.1
2019-01-12T10:25:13.026Z,998.09
2019-01-12T10:26:13.006Z,998.04
2019-01-12T10:27:13.026Z,998.04
2019-01-12T10:28:12.989Z,998.03
2019-01-12T10:29:12.978Z,997.99
2019-01-12T10:30:12.972Z,997.92
2019-01-12T10:31:12.964Z,997.88
2019-01-12T10:32:12.953Z,997.92
2019-01-12T10:33:12.947Z,997.89
2019-01-12T10:34:12.940Z,997.85
2019-01-12T10:35:12.932Z,997.77
2019-01-12T10:36:12.929Z,997.82
2019-01-12T10:37:12.911Z,997.77
2019-01-12T10:38:12.906Z,997.8
2019-01-12T10:39:17.863Z,997.76
2019-01-12T10:40:12.944Z,997.72
2019-01-12T10:41:12.884Z,997.71
2019-01-12T10:42:12.873Z,997.71
2019-01-12T10:43:12.858Z,997.71
2019-01-12T10:44:12.864Z,997.69
2019-01-12T10:45:12.848Z,997.73
2019-01-12T10:46:12.834Z,997.7
2019-01-12T10:47:12.921Z,997.65
2019-01-12T10:48:12.818Z,997.59
2019-01-12T10:49:12.829Z,997.6
2019-01-12T10:50:12.803Z,997.6
2019-01-12T10:51:12.811Z,997.56
2019-01-12T10:52:12.785Z,997.54
2019-01-12T10:53:12.772Z,997.54
2019-01-12T10:54:12.768Z,997.6
2019-01-12T10:55:12.754Z,997.56
2019-01-12T10:56:12.743Z,997.5
2019-01-12T10:57:12.740Z,997.47
2019-01-12T10:58:12.734Z,997.44
2019-01-12T10:59:12.723Z,997.42
2019-01-12T11:00:12.715Z,997.4
2019-01-12T11:01:12.703Z,997.36
2019-01-12T11:02:12.697Z,997.41
2019-01-12T11:03:12.691Z,997.43
2019-01-12T11:04:12.685Z,997.36
2019-01-12T11:05:12.672Z,997.32
2019-01-12T11:06:12.667Z,997.27
2019-01-12T11:07:12.653Z,997.17
2019-01-12T11:08:12.646Z,997.16
2019-01-12T11:09:12.637Z,997.2
2019-01-12T11:10:12.642Z,997.15
2019-01-12T11:11:12.618Z,997.12
2019-01-12T11:12:12.609Z,997.1
2019-01-12T11:13:12.610Z,997.09
2019-01-12T11:14:12.591Z,997.08
2019-01-12T11:15:12.583Z,997.05
2019-01-12T11:16:12.579Z,997.06
2019-01-12T11:17:12.567Z,997.01
2019-01-12T11:18:12.566Z,996.94
2019-01-12T11:19:12.550Z,996.95
2019-01-12T11:20:12.550Z,996.92
2019-01-12T11:21:12.534Z,996.96
2019-01-12T11:22:12.524Z,996.88
2019-01-12T11:23:12.515Z,996.86
2019-01-12T11:24:12.510Z,996.89
2019-01-12T11:25:12.498Z,996.91
2019-01-12T11:26:12.489Z,996.89
2019-01-12T11:27:12.566Z,996.95
2019-01-12T11:28:12.472Z,996.83
2019-01-12T11:29:12.464Z,996.85
2019-01-12T11:30:12.454Z,996.85
2019-01-12T11:31:12.443Z,996.82
2019-01-12T11:32:12.435Z,996.8
2019-01-12T11:33:12.428Z,996.75
2019-01-12T11:34:12.419Z,996.79
2019-01-12T11:35:12.411Z,996.82
2019-01-12T11:36:12.414Z,996.84
2019-01-12T11:37:12.401Z,996.8
2019-01-12T11:38:12.384Z,996.78
2019-01-12T11:39:12.380Z,996.81
2019-01-12T11:40:13.166Z,996.79
2019-01-12T11:41:12.357Z,996.8
2019-01-12T11:42:12.347Z,996.81
2019-01-12T11:43:12.338Z,996.75
2019-01-12T11:44:12.332Z,996.8
2019-01-12T11:45:12.322Z,996.7
2019-01-12T11:46:12.312Z,996.65
2019-01-12T11:47:12.311Z,996.58
2019-01-12T11:48:12.297Z,996.57
2019-01-12T11:49:12.287Z,996.56
2019-01-12T11:50:12.279Z,996.46
2019-01-12T11:51:12.268Z,996.53
2019-01-12T11:52:12.273Z,996.5
2019-01-12T11:53:12.259Z,996.5
2019-01-12T11:54:12.240Z,996.45
2019-01-12T11:55:12.234Z,996.49
2019-01-12T11:56:12.231Z,996.48
2019-01-12T11:57:18.938Z,996.42
2019-01-12T11:58:12.202Z,996.34
2019-01-12T11:59:12.199Z,996.3
2019-01-12T12:00:12.183Z,996.31
2019-01-12T12:01:12.182Z,996.25
2019-01-12T12:02:12.165Z,996.26
2019-01-12T12:03:12.157Z,996.18
2019-01-12T12:04:12.151Z,996.15
2019-01-12T12:05:12.138Z,996.16
2019-01-12T12:06:12.132Z,996.09
2019-01-12T12:07:12.128Z,996.13
2019-01-12T12:08:12.108Z,996.08
2019-01-12T12:09:12.100Z,996.01
2019-01-12T12:10:12.096Z,995.97
2019-01-12T12:11:12.090Z,995.92
2019-01-12T12:12:12.074Z,995.91
2019-01-12T12:13:12.066Z,995.85
2019-01-12T12:14:12.057Z,995.93
2019-01-12T12:15:12.054Z,995.89
2019-01-12T12:16:12.036Z,995.87
2019-01-12T12:17:12.029Z,995.82
2019-01-12T12:18:12.019Z,995.73
2019-01-12T12:19:12.017Z,995.71
2019-01-12T12:20:12.009Z,995.69
2019-01-12T12:21:11.995Z,995.73
2019-01-12T12:22:11.984Z,995.74
2019-01-12T12:23:11.977Z,995.71
2019-01-12T12:24:11.965Z,995.71
2019-01-12T12:25:11.962Z,995.76
2019-01-12T12:26:11.961Z,995.76
2019-01-12T12:27:11.952Z,995.78
2019-01-12T12:28:11.937Z,995.78
2019-01-12T12:29:11.923Z,995.71
2019-01-12T12:30:11.923Z,995.73
2019-01-12T12:31:11.911Z,995.74